Data for 11/08/2013

Time Sea-Level Adjusted Pressure Absolute Pressure Temperature Relative Humidity Dew Point   
(mb) (inHg) (mb) (inHg) (C) (F) (%) (C) (F)
00:05 1009 29.8 838 24.75 9.1 48.3 53 0 32
00:10 1009 29.8 838 24.75 8.5 47.4 57 0.5 33
00:15 1009 29.8 838 24.75 8.1 46.5 61 1.1 33.9
00:20 1010 29.83 839 24.78 7.4 45.4 66 1.6 34.8
00:25 1011 29.85 840 24.81 3.9 39 83 1.3 34.4
00:30 1011 29.85 840 24.81 1.7 35.1 90 0.3 32.5
00:35 1011 29.85 840 24.81 1.2 34.2 92 0 32
00:40 1011 29.85 840 24.81 1 33.8 92 -0.1 31.8
00:45 1011 29.85 840 24.81 0.8 33.5 93 -0.3 31.5
00:50 1011 29.85 840 24.81 0.9 33.5 91 -0.4 31.2
00:55 1011 29.85 840 24.81 1.2 34.1 89 -0.5 31.1
01:00 1011 29.85 840 24.81 1.4 34.6 88 -0.4 31.4
01:05 1011 29.85 840 24.81 1.6 34.9 86 -0.5 31.1
01:10 1011 29.85 841 24.83 1.7 35.1 85 -0.4 31.2
01:15 1012 29.88 841 24.83 1.8 35.2 87 -0.1 31.8
01:20 1012 29.88 841 24.83 1.7 35.1 88 -0 31.9
01:25 1012 29.88 841 24.83 1.6 34.9 89 -0.1 31.9
01:30 1012 29.88 841 24.83 1.6 34.8 86 -0.5 31.2
01:35 1012 29.88 841 24.83 1.5 34.7 85 -0.7 30.8
01:40 1012 29.88 841 24.83 1.4 34.6 87 -0.5 31.1
01:45 1012 29.88 841 24.83 1.4 34.5 87 -0.5 31.1
01:50 1012 29.88 841 24.83 1.7 35.1 84 -0.8 30.6
01:55 1012 29.88 841 24.83 2.1 35.8 83 -0.4 31.3
02:00 1012 29.88 841 24.83 2.2 36 77 -1.3 29.6
02:05 1012 29.88 841 24.83 2.2 35.9 76 -1.7 29
02:10 1012 29.88 841 24.83 2 35.5 75 -2 28.4
02:15 1012 29.88 841 24.83 1.8 35.2 73 -2.5 27.5
02:20 1012 29.88 841 24.83 1.9 35.4 69 -3.2 26.2
02:25 1012 29.88 841 24.83 2 35.7 68 -3.2 26.2
02:30 1012 29.88 841 24.83 2.2 35.9 66 -3.5 25.7
02:35 1012 29.88 842 24.86 2.4 36.3 64 -3.7 25.4
02:40 1012 29.88 841 24.83 2.5 36.5 65 -3.3 26.1
02:45 1012 29.88 841 24.83 2.5 36.4 65 -3.5 25.6
02:50 1012 29.88 841 24.83 2.6 36.7 63 -3.8 25.2
02:55 1012 29.88 841 24.83 2.6 36.7 62 -4 24.7
03:00 1012 29.88 841 24.83 2.7 36.8 62 -3.9 25
03:05 1012 29.88 842 24.86 2.6 36.7 62 -4 24.8
03:10 1012 29.88 842 24.86 2.6 36.7 63 -3.6 25.5
03:15 1013 29.91 842 24.86 2.5 36.6 63 -3.7 25.3
03:20 1013 29.91 842 24.86 2.5 36.4 63 -3.8 25.2
03:25 1012 29.88 842 24.86 2.5 36.4 65 -3.5 25.7
03:30 1012 29.88 842 24.86 2.3 36.1 65 -3.5 25.6
03:35 1012 29.88 841 24.83 2 35.7 66 -3.7 25.3
03:40 1012 29.88 841 24.83 1.9 35.5 65 -4 24.7
03:45 1012 29.88 841 24.83 1.9 35.4 61 -4.9 23.1
03:50 1012 29.88 841 24.83 2 35.5 61 -4.9 23.2
03:55 1012 29.88 841 24.83 1.9 35.3 61 -4.8 23.4
04:00 1012 29.88 841 24.83 1.7 35.1 61 -5.1 22.9
04:05 1012 29.88 841 24.83 1.8 35.2 59 -5.3 22.4
04:10 1012 29.88 841 24.83 1.7 35.1 61 -4.9 23.1
04:15 1012 29.88 842 24.86 1.5 34.7 63 -4.7 23.5
04:20 1012 29.88 842 24.86 1.3 34.4 63 -4.9 23.2
04:25 1013 29.91 842 24.86 1.2 34.1 65 -4.7 23.6
04:30 1013 29.91 842 24.86 1.2 34.2 63 -5 23.1
04:35 1013 29.91 842 24.86 1.5 34.7 62 -4.9 23.2
04:40 1013 29.91 842 24.86 1.5 34.8 59 -5.6 21.9
04:45 1013 29.91 842 24.86 1.6 34.9 59 -5.5 22.1
04:50 1013 29.91 842 24.86 1.7 35.1 57 -5.9 21.4
04:55 1013 29.91 842 24.86 1.8 35.3 57 -5.7 21.7
05:00 1013 29.91 842 24.86 1.8 35.2 57 -5.8 21.5
05:05 1013 29.91 842 24.86 1.8 35.2 56 -6 21.2
05:10 1013 29.91 842 24.86 1.9 35.4 57 -5.9 21.4
05:15 1013 29.91 842 24.86 1.8 35.3 57 -5.9 21.4
05:20 1013 29.91 842 24.86 1.8 35.2 57 -5.9 21.4
05:25 1013 29.91 842 24.86 1.7 35.1 57 -5.9 21.3
05:30 1013 29.91 842 24.86 1.8 35.2 56 -6 21.2
05:35 1013 29.91 842 24.86 1.9 35.3 55 -6.2 20.8
05:40 1013 29.91 842 24.86 2 35.7 55 -6.1 21.1
05:45 1013 29.91 842 24.86 2.1 35.9 53 -6.3 20.6
05:50 1013 29.91 842 24.86 2.2 36 54 -6 21.1
05:55 1013 29.91 842 24.86 2.1 35.9 56 -5.8 21.5
06:00 1013 29.91 842 24.86 2 35.6 57 -5.7 21.7
06:05 1013 29.91 842 24.86 1.9 35.4 56 -5.9 21.5
06:10 1013 29.91 843 24.89 1.9 35.4 56 -5.9 21.3
06:15 1013 29.91 843 24.89 2 35.6 55 -6.2 20.8
06:20 1013 29.91 843 24.89 2 35.7 57 -5.7 21.8
06:25 1013 29.91 843 24.89 1.7 35.1 59 -5.6 22
06:30 1013 29.91 843 24.89 1.6 35 57 -6.1 21.1
06:35 1013 29.91 843 24.89 1.8 35.2 54 -6.5 20.2
06:40 1013 29.91 843 24.89 1.9 35.3 55 -6.2 20.9
06:45 1013 29.91 843 24.89 1.9 35.4 54 -6.4 20.5
06:50 1013 29.91 843 24.89 2 35.5 57 -5.6 21.9
06:55 1013 29.91 843 24.89 1.9 35.4 58 -5.4 22.3
07:00 1013 29.91 843 24.89 1.7 35.1 58 -5.7 21.7
07:05 1014 29.94 843 24.89 1.7 35.1 55 -6.4 20.5
07:10 1014 29.94 843 24.89 2 35.6 55 -6.2 20.9
07:15 1014 29.94 843 24.89 2.1 35.8 52 -6.6 20.1
07:20 1014 29.94 843 24.89 2.3 36.2 53 -6.3 20.6
07:25 1014 29.94 843 24.89 2.3 36.2 54 -6.1 21
07:30 1014 29.94 843 24.89 2.2 36 55 -5.8 21.5
07:35 1014 29.94 843 24.89 2.1 35.9 56 -5.7 21.7
07:40 1014 29.94 843 24.89 2.1 35.7 56 -5.8 21.6
07:45 1014 29.94 843 24.89 2.2 36 53 -6.3 20.6
07:50 1014 29.94 843 24.89 2.4 36.3 54 -6 21.1
07:55 1014 29.94 843 24.89 2.4 36.3 54 -6.1 21
08:00 1014 29.94 843 24.89 2.4 36.3 54 -6.1 21.1
08:05 1014 29.94 843 24.89 2.5 36.5 52 -6.5 20.3
08:10 1014 29.94 844 24.92 2.6 36.8 52 -6.2 20.9
08:15 1014 29.94 844 24.92 2.7 36.9 52 -6.2 20.8
08:20 1014 29.94 844 24.92 2.7 36.9 50 -6.6 20.1
08:25 1014 29.94 844 24.92 2.9 37.2 49 -6.7 20
08:30 1014 29.94 844 24.92 2.9 37.3 49 -6.7 19.9
08:35 1014 29.94 844 24.92 3 37.4 48 -7 19.4
08:40 1014 29.94 844 24.92 3.2 37.7 47 -7.1 19.3
08:45 1014 29.94 843 24.89 3.3 37.9 46 -7.3 18.8
08:50 1014 29.94 843 24.89 3.5 38.2 46 -7.2 19.1
08:55 1014 29.94 844 24.92 3.5 38.2 45 -7.4 18.8
09:00 1014 29.94 844 24.92 3.6 38.5 47 -6.7 20
09:05 1014 29.94 844 24.92 3.7 38.7 48 -6.3 20.6
09:10 1015 29.97 844 24.92 3.6 38.4 46 -6.9 19.7
09:15 1015 29.97 844 24.92 3.6 38.5 47 -6.8 19.7
09:20 1015 29.97 844 24.92 3.6 38.4 47 -6.6 20.1
09:25 1015 29.97 844 24.92 3.5 38.3 49 -6.2 20.9
09:30 1015 29.97 844 24.92 3.4 38.1 48 -6.6 20.1
09:35 1015 29.97 844 24.92 3.5 38.3 48 -6.5 20.3
09:40 1015 29.97 844 24.92 3.6 38.5 49 -6 21.2
09:45 1015 29.97 844 24.92 3.6 38.4 50 -5.8 21.6
09:50 1015 29.97 844 24.92 3.6 38.5 49 -6 21.1
09:55 1015 29.97 844 24.92 3.6 38.6 50 -6 21.3
10:00 1015 29.97 844 24.92 3.7 38.6 49 -6 21.1
10:05 1015 29.97 844 24.92 3.6 38.6 49 -6.1 21.1
10:10 1015 29.97 844 24.92 3.8 38.8 48 -6.3 20.6
10:15 1015 29.97 844 24.92 3.8 38.9 49 -6 21.1
10:20 1015 29.97 844 24.92 3.8 38.8 49 -6 21.1
10:25 1015 29.97 844 24.92 3.8 38.8 49 -6.1 21
10:30 1015 29.97 844 24.92 3.8 38.8 49 -5.9 21.3
10:35 1015 29.97 844 24.92 3.8 38.9 49 -6 21.2
10:40 1015 29.97 844 24.92 3.9 39 47 -6.3 20.6
10:45 1015 29.97 844 24.92 4 39.1 47 -6.3 20.6
10:50 1015 29.97 844 24.92 4 39.3 47 -6.3 20.7
10:55 1015 29.97 845 24.95 4.1 39.3 47 -6.3 20.7
11:00 1015 29.97 845 24.95 4.1 39.3 48 -5.8 21.5
11:05 1015 29.97 845 24.95 4.1 39.3 49 -5.8 21.6
11:10 1015 29.97 845 24.95 4.1 39.3 49 -5.6 22
11:15 1015 29.97 845 24.95 4.1 39.4 49 -5.6 21.9
11:20 1015 29.97 845 24.95 4.2 39.6 49 -5.7 21.8
11:25 1015 29.97 845 24.95 4.3 39.8 48 -5.8 21.5
11:30 1015 29.97 845 24.95 4.5 40 48 -5.5 22
11:35 1015 29.97 845 24.95 4.5 40.1 48 -5.6 22
11:40 1015 29.97 845 24.95 4.5 40.1 47 -5.8 21.5
11:45 1015 29.97 845 24.95 4.6 40.2 47 -5.7 21.8
11:50 1015 29.97 845 24.95 4.7 40.4 45 -6.3 20.7
11:55 1016 30 845 24.95 4.8 40.6 46 -6 21.2
12:00 1016 30 845 24.95 4.9 40.7 46 -5.8 21.5
12:05 1016 30 845 24.95 4.9 40.8 47 -5.4 22.2
12:10 1016 30 845 24.95 4.9 40.9 47 -5.4 22.3
12:15 1016 30 845 24.95 5.1 41.1 47 -5.4 22.3
12:20 1016 30 845 24.95 5.2 41.4 44 -6 21.3
12:25 1016 30 845 24.95 5.4 41.8 43 -6.2 20.9
12:30 1016 30 845 24.95 5.6 42.1 42 -6.4 20.5
12:35 1016 30 845 24.95 5.8 42.4 42 -6.2 20.8
12:40 1016 30 845 24.95 5.9 42.6 42 -6.2 20.8
12:45 1016 30 845 24.95 6 42.8 41 -6.2 20.9
12:50 1016 30 845 24.95 6.1 43.1 39 -6.7 20
12:55 1016 30 845 24.95 6.2 43.2 40 -6.3 20.7
13:00 1016 30 845 24.95 6.2 43.1 40 -6.5 20.3
13:05 1015 29.97 845 24.95 6.1 43.1 39 -6.7 19.9
13:10 1015 29.97 845 24.95 6 42.9 41 -6.3 20.6
13:15 1015 29.97 845 24.95 6.1 43 40 -6.4 20.6
13:20 1015 29.97 845 24.95 6.1 43 40 -6.5 20.2
13:25 1015 29.97 844 24.92 6.2 43.1 39 -6.7 20
13:30 1015 29.97 844 24.92 6.2 43.2 38 -7 19.4
13:35 1015 29.97 844 24.92 6.1 43.1 40 -6.6 20.2
13:40 1015 29.97 844 24.92 6.1 43 40 -6.3 20.6
13:45 1015 29.97 844 24.92 6.1 42.9 40 -6.4 20.5
13:50 1015 29.97 844 24.92 6 42.8 39 -6.9 19.5
13:55 1015 29.97 844 24.92 5.9 42.7 39 -6.9 19.6
14:00 1015 29.97 844 24.92 5.9 42.6 41 -6.5 20.4
14:05 1015 29.97 844 24.92 6 42.8 40 -6.6 20.1
14:10 1015 29.97 844 24.92 5.9 42.7 40 -6.7 20
14:15 1015 29.97 844 24.92 6 42.7 40 -6.5 20.3
14:20 1015 29.97 844 24.92 6 42.8 40 -6.5 20.3
14:25 1015 29.97 844 24.92 5.9 42.7 41 -6.5 20.4
14:30 1015 29.97 844 24.92 5.8 42.5 41 -6.4 20.4
14:35 1015 29.97 844 24.92 5.9 42.5 41 -6.3 20.6
14:40 1015 29.97 845 24.95 5.8 42.5 41 -6.4 20.4
14:45 1015 29.97 845 24.95 5.9 42.6 41 -6.5 20.4
14:50 1015 29.97 845 24.95 6 42.8 40 -6.4 20.5
14:55 1016 30 845 24.95 6.1 42.9 41 -6.1 21.1
15:00 1016 30 845 24.95 6.1 43 41 -6.1 21.1
15:05 1015 29.97 845 24.95 6.2 43.2 41 -6 21.2
15:10 1015 29.97 845 24.95 6.2 43.2 40 -6.3 20.6
15:15 1016 30 845 24.95 6.2 43.1 41 -6 21.3
15:20 1016 30 845 24.95 6.2 43.2 41 -6 21.3
15:25 1016 30 845 24.95 6.2 43.2 40 -6.3 20.6
15:30 1015 29.97 845 24.95 6.2 43.2 41 -6.1 21
15:35 1015 29.97 845 24.95 6.3 43.4 40 -6.2 20.9
15:40 1015 29.97 845 24.95 6.3 43.4 41 -6 21.2
15:45 1015 29.97 845 24.95 6.3 43.4 41 -5.9 21.4
15:50 1015 29.97 845 24.95 6.3 43.4 41 -6.1 21
15:55 1015 29.97 845 24.95 6.3 43.3 42 -5.8 21.6
16:00 1015 29.97 845 24.95 6.2 43.1 41 -6 21.2
16:05 1016 30 845 24.95 6.2 43.1 42 -5.8 21.6
16:10 1016 30 845 24.95 6.2 43.1 42 -5.8 21.5
16:15 1016 30 845 24.95 6.1 43 41 -6.2 20.9
16:20 1016 30 845 24.95 6.1 43.1 41 -6.1 21.1
16:25 1016 30 845 24.95 6.2 43.1 42 -5.9 21.3
16:30 1016 30 845 24.95 6.2 43.1 41 -6.2 20.9
16:35 1016 30 845 24.95 6.1 43 41 -6.1 21
16:40 1016 30 845 24.95 6.1 43 40 -6.5 20.3
16:45 1016 30 845 24.95 6.1 43 40 -6.6 20.2
16:50 1016 30 845 24.95 6.1 43 40 -6.6 20.2
16:55 1016 30 845 24.95 6 42.8 41 -6.3 20.6
17:00 1016 30 845 24.95 5.8 42.5 41 -6.4 20.5
17:05 1016 30 845 24.95 5.8 42.4 41 -6.3 20.6
17:10 1016 30 845 24.95 5.7 42.3 42 -6.2 20.9
17:15 1016 30 845 24.95 5.7 42.2 42 -6.3 20.7
17:20 1016 30 845 24.95 5.7 42.2 42 -6.4 20.5
17:25 1016 30 845 24.95 5.7 42.2 41 -6.4 20.4
17:30 1016 30 845 24.95 5.7 42.3 41 -6.5 20.3
17:35 1016 30 845 24.95 5.7 42.3 42 -6.3 20.6
17:40 1016 30 845 24.95 5.7 42.2 42 -6.3 20.7
17:45 1016 30 845 24.95 5.7 42.2 42 -6.2 20.8
17:50 1016 30 845 24.95 5.7 42.2 42 -6.3 20.6
17:55 1016 30 845 24.95 5.7 42.3 41 -6.4 20.4
18:00 1016 30 845 24.95 5.7 42.3 41 -6.4 20.4
18:05 1016 30 845 24.95 5.7 42.3 43 -6 21.2
18:10 1016 30 845 24.95 5.6 42.1 43 -6 21.2
18:15 1016 30 845 24.95 5.6 42.1 44 -5.7 21.7
18:20 1016 30 845 24.95 5.5 42 44 -5.6 21.9
18:25 1016 30 845 24.95 5.5 41.8 45 -5.5 22.1
18:30 1016 30 845 24.95 5.4 41.8 45 -5.5 22.2
18:35 1016 30 846 24.98 5.4 41.7 46 -5.3 22.4
18:40 1017 30.03 846 24.98 5.3 41.5 47 -5.1 22.7
18:45 1017 30.03 846 24.98 5.2 41.4 47 -5.1 22.8
18:50 1017 30.03 846 24.98 5.1 41.3 48 -5 23
18:55 1017 30.03 846 24.98 5.1 41.1 48 -5 22.9
19:00 1017 30.03 846 24.98 5 41.1 48 -5 23
19:05 1017 30.03 846 24.98 5 41 49 -4.9 23.2
19:10 1017 30.03 846 24.98 4.9 40.8 49 -5 23
19:15 1017 30.03 846 24.98 4.9 40.8 49 -4.9 23.2
19:20 1017 30.03 846 24.98 4.9 40.8 48 -5.2 22.7
19:25 1017 30.03 846 24.98 4.9 40.7 49 -5.1 22.8
19:30 1017 30.03 846 24.98 4.8 40.7 48 -5.1 22.8
19:35 1017 30.03 846 24.98 4.8 40.7 48 -5.2 22.6
19:40 1017 30.03 846 24.98 4.9 40.7 48 -5.2 22.6
19:45 1017 30.03 846 24.98 4.9 40.8 47 -5.4 22.3
19:50 1017 30.03 846 24.98 4.9 40.8 48 -5.2 22.6
19:55 1017 30.03 846 24.98 4.8 40.6 49 -5.1 22.9
20:00 1017 30.03 846 24.98 4.7 40.5 48 -5.3 22.4
20:05 1017 30.03 846 24.98 4.8 40.7 48 -5.4 22.3
20:10 1017 30.03 846 24.98 4.9 40.8 47 -5.4 22.3
20:15 1017 30.03 846 24.98 5 40.9 48 -5.3 22.5
20:20 1017 30.03 846 24.98 5 40.9 47 -5.4 22.2
20:25 1017 30.03 846 24.98 5 40.9 48 -5.2 22.6
20:30 1017 30.03 846 24.98 4.8 40.7 47 -5.6 21.9
20:35 1017 30.03 847 25.01 4.8 40.7 48 -5.2 22.6
20:40 1017 30.03 847 25.01 4.8 40.6 48 -5.3 22.5
20:45 1018 30.06 847 25.01 4.8 40.6 48 -5.4 22.2
20:50 1018 30.06 847 25.01 4.8 40.7 47 -5.5 22.2
20:55 1018 30.06 847 25.01 4.9 40.8 46 -5.8 21.5
21:00 1018 30.06 847 25.01 5 41.1 47 -5.4 22.2
21:05 1018 30.06 847 25.01 5 41 49 -4.9 23.1
21:10 1018 30.06 847 25.01 4.7 40.5 51 -4.7 23.6
21:15 1018 30.06 847 25.01 4.5 40.2 51 -4.7 23.6
21:20 1018 30.06 847 25.01 4.4 40 52 -4.6 23.8
21:25 1018 30.06 847 25.01 4.4 39.9 52 -4.5 23.9
21:30 1018 30.06 847 25.01 4.3 39.7 53 -4.5 24
21:35 1018 30.06 847 25.01 4.2 39.6 53 -4.4 24
21:40 1018 30.06 847 25.01 4.2 39.5 53 -4.6 23.8
21:45 1018 30.06 847 25.01 4.2 39.5 53 -4.6 23.7
21:50 1018 30.06 847 25.01 4.3 39.7 51 -4.9 23.2
21:55 1018 30.06 847 25.01 4.3 39.7 51 -4.9 23.2
22:00 1018 30.06 847 25.01 4.3 39.7 51 -5 23.1
22:05 1018 30.06 847 25.01 4.3 39.7 51 -4.9 23.3
22:10 1018 30.06 847 25.01 4.2 39.5 52 -4.8 23.4
22:15 1018 30.06 847 25.01 4.1 39.4 52 -4.8 23.3
22:20 1018 30.06 847 25.01 4 39.2 53 -4.8 23.3
22:25 1018 30.06 848 25.04 3.9 39.1 53 -4.8 23.3
22:30 1018 30.06 848 25.04 3.9 39 53 -4.9 23.2
22:35 1018 30.06 848 25.04 3.9 39 53 -4.9 23.3
22:40 1018 30.06 848 25.04 3.9 39 53 -4.9 23.1
22:45 1019 30.09 848 25.04 3.9 38.9 53 -4.8 23.3
22:50 1019 30.09 848 25.04 3.8 38.8 52 -5 22.9
22:55 1019 30.09 848 25.04 3.8 38.8 51 -5.4 22.2
23:00 1019 30.09 848 25.04 3.8 38.8 50 -5.6 21.8
23:05 1019 30.09 848 25.04 3.8 38.8 49 -5.8 21.5
23:10 1019 30.09 848 25.04 3.7 38.7 49 -6.1 21
23:15 1019 30.09 848 25.04 3.7 38.6 48 -6.4 20.6
23:20 1019 30.09 848 25.04 3.6 38.5 48 -6.5 20.3
23:25 1019 30.09 848 25.04 3.5 38.3 48 -6.5 20.3
23:30 1019 30.09 848 25.04 3.4 38.2 48 -6.5 20.3
23:35 1019 30.09 848 25.04 3.3 37.9 49 -6.4 20.4
23:40 1019 30.09 848 25.04 3.1 37.7 49 -6.4 20.4
23:45 1019 30.09 848 25.04 3 37.4 50 -6.3 20.6
23:50 1019 30.09 848 25.04 2.8 37.1 51 -6.3 20.7
23:55 1019 30.09 848 25.04 2.6 36.8 53 -6.1 21.1
24:00 1019 30.09 849 25.07 2.5 36.4 54 -5.9 21.4